sensor_id;sensor_type;location;lat;lon;timestamp;pressure;altitude;pressure_sealevel;temperature;humidity
37206;BME280;23099;42.636;23.198;2023-03-25T00:00:20;91731.41;;;8.01;73.30
37206;BME280;23099;42.636;23.198;2023-03-25T00:02:48;91737.94;;;8.04;74.12
37206;BME280;23099;42.636;23.198;2023-03-25T00:05:18;91735.13;;;7.77;74.18
37206;BME280;23099;42.636;23.198;2023-03-25T00:07:48;91740.91;;;7.83;74.66
37206;BME280;23099;42.636;23.198;2023-03-25T00:10:15;91746.78;;;7.73;74.91
37206;BME280;23099;42.636;23.198;2023-03-25T00:12:42;91739.66;;;7.77;76.13
37206;BME280;23099;42.636;23.198;2023-03-25T00:15:11;91737.28;;;7.72;75.35
37206;BME280;23099;42.636;23.198;2023-03-25T00:17:38;91733.91;;;7.75;75.82
37206;BME280;23099;42.636;23.198;2023-03-25T00:20:06;91725.16;;;7.74;76.08
37206;BME280;23099;42.636;23.198;2023-03-25T00:22:34;91730.91;;;7.76;75.66
37206;BME280;23099;42.636;23.198;2023-03-25T00:25:07;91722.09;;;7.72;75.30
37206;BME280;23099;42.636;23.198;2023-03-25T00:27:34;91726.06;;;7.63;76.03
37206;BME280;23099;42.636;23.198;2023-03-25T00:30:01;91719.97;;;7.62;76.52
37206;BME280;23099;42.636;23.198;2023-03-25T00:32:27;91710.16;;;7.66;76.84
37206;BME280;23099;42.636;23.198;2023-03-25T00:34:55;91716.03;;;7.56;77.43
37206;BME280;23099;42.636;23.198;2023-03-25T00:37:22;91714.72;;;7.66;77.34
37206;BME280;23099;42.636;23.198;2023-03-25T00:39:49;91708.28;;;7.67;77.55
37206;BME280;23099;42.636;23.198;2023-03-25T00:42:17;91713.25;;;7.68;77.58
37206;BME280;23099;42.636;23.198;2023-03-25T00:44:50;91717.03;;;7.67;77.19
37206;BME280;23099;42.636;23.198;2023-03-25T00:47:17;91707.84;;;7.65;78.04
37206;BME280;23099;42.636;23.198;2023-03-25T00:49:45;91712.53;;;7.52;78.01
37206;BME280;23099;42.636;23.198;2023-03-25T00:52:11;91710.94;;;7.48;78.58
37206;BME280;23099;42.636;23.198;2023-03-25T00:54:38;91708.41;;;7.55;78.25
37206;BME280;23099;42.636;23.198;2023-03-25T00:57:05;91705.84;;;7.58;78.24
37206;BME280;23099;42.636;23.198;2023-03-25T00:59:33;91698.53;;;7.55;77.98
37206;BME280;23099;42.636;23.198;2023-03-25T01:01:59;91700.72;;;7.50;78.32
37206;BME280;23099;42.636;23.198;2023-03-25T01:04:27;91709.88;;;7.52;78.56
37206;BME280;23099;42.636;23.198;2023-03-25T01:06:54;91693.56;;;7.54;78.82
37206;BME280;23099;42.636;23.198;2023-03-25T01:09:20;91693.81;;;7.29;79.08
37206;BME280;23099;42.636;23.198;2023-03-25T01:11:47;91700.34;;;7.32;80.01
37206;BME280;23099;42.636;23.198;2023-03-25T01:14:16;91692.97;;;7.25;79.41
37206;BME280;23099;42.636;23.198;2023-03-25T01:16:45;91695.06;;;7.16;79.58
37206;BME280;23099;42.636;23.198;2023-03-25T01:19:13;91686.31;;;7.16;79.71
37206;BME280;23099;42.636;23.198;2023-03-25T01:21:40;91686.38;;;7.19;80.21
37206;BME280;23099;42.636;23.198;2023-03-25T01:24:11;91681.06;;;7.19;80.70
37206;BME280;23099;42.636;23.198;2023-03-25T01:26:38;91673.09;;;7.19;80.05
37206;BME280;23099;42.636;23.198;2023-03-25T01:29:08;91670.00;;;7.17;79.99
37206;BME280;23099;42.636;23.198;2023-03-25T01:31:35;91661.97;;;7.14;80.25
37206;BME280;23099;42.636;23.198;2023-03-25T01:34:03;91664.09;;;7.08;80.82
37206;BME280;23099;42.636;23.198;2023-03-25T01:36:30;91665.66;;;7.09;81.06
37206;BME280;23099;42.636;23.198;2023-03-25T01:38:58;91662.94;;;7.05;81.39
37206;BME280;23099;42.636;23.198;2023-03-25T01:41:26;91660.63;;;7.04;81.32
37206;BME280;23099;42.636;23.198;2023-03-25T01:44:04;91657.97;;;7.04;81.63
37206;BME280;23099;42.636;23.198;2023-03-25T01:46:32;91647.94;;;6.97;81.73
37206;BME280;23099;42.636;23.198;2023-03-25T01:49:01;91655.34;;;7.07;81.97
37206;BME280;23099;42.636;23.198;2023-03-25T01:51:31;91653.56;;;7.12;81.76
37206;BME280;23099;42.636;23.198;2023-03-25T01:53:59;91651.59;;;7.08;81.49
37206;BME280;23099;42.636;23.198;2023-03-25T01:56:30;91637.91;;;7.06;81.54
37206;BME280;23099;42.636;23.198;2023-03-25T01:59:00;91656.09;;;6.89;81.78
37206;BME280;23099;42.636;23.198;2023-03-25T02:01:28;91652.13;;;6.98;82.31
37206;BME280;23099;42.636;23.198;2023-03-25T02:03:55;91656.53;;;6.91;82.69
37206;BME280;23099;42.636;23.198;2023-03-25T02:06:38;91650.09;;;6.92;82.83
37206;BME280;23099;42.636;23.198;2023-03-25T02:09:08;91646.94;;;6.86;82.38
37206;BME280;23099;42.636;23.198;2023-03-25T02:11:36;91652.69;;;6.88;82.47
37206;BME280;23099;42.636;23.198;2023-03-25T02:14:06;91649.69;;;6.90;82.76
37206;BME280;23099;42.636;23.198;2023-03-25T02:16:42;91649.34;;;6.91;82.54
37206;BME280;23099;42.636;23.198;2023-03-25T02:22:38;91641.38;;;6.76;82.73
37206;BME280;23099;42.636;23.198;2023-03-25T02:25:39;91641.97;;;6.69;83.62
37206;BME280;23099;42.636;23.198;2023-03-25T02:28:16;91653.47;;;6.57;84.01
37206;BME280;23099;42.636;23.198;2023-03-25T02:31:30;91650.63;;;6.50;84.79
37206;BME280;23099;42.636;23.198;2023-03-25T02:34:16;91649.28;;;6.56;84.54
37206;BME280;23099;42.636;23.198;2023-03-25T02:37:17;91646.63;;;6.56;84.47
37206;BME280;23099;42.636;23.198;2023-03-25T02:39:54;91646.63;;;6.56;84.60
37206;BME280;23099;42.636;23.198;2023-03-25T02:42:26;91639.84;;;6.59;84.92
37206;BME280;23099;42.636;23.198;2023-03-25T02:45:00;91638.31;;;6.58;84.66
37206;BME280;23099;42.636;23.198;2023-03-25T02:47:31;91637.63;;;6.61;84.73
37206;BME280;23099;42.636;23.198;2023-03-25T02:50:03;91638.75;;;6.60;84.65
37206;BME280;23099;42.636;23.198;2023-03-25T02:52:33;91632.56;;;6.56;85.17
37206;BME280;23099;42.636;23.198;2023-03-25T02:55:06;91638.56;;;6.53;84.80
37206;BME280;23099;42.636;23.198;2023-03-25T02:57:37;91633.25;;;6.53;85.16
37206;BME280;23099;42.636;23.198;2023-03-25T03:00:07;91633.53;;;6.48;85.41
37206;BME280;23099;42.636;23.198;2023-03-25T03:02:42;91632.75;;;6.47;85.29
37206;BME280;23099;42.636;23.198;2023-03-25T03:05:25;91623.31;;;6.50;85.46
37206;BME280;23099;42.636;23.198;2023-03-25T03:08:00;91625.91;;;6.46;85.17
37206;BME280;23099;42.636;23.198;2023-03-25T03:10:38;91630.88;;;6.48;85.43
37206;BME280;23099;42.636;23.198;2023-03-25T03:13:16;91629.06;;;6.36;85.52
37206;BME280;23099;42.636;23.198;2023-03-25T03:15:53;91638.75;;;6.44;85.75
37206;BME280;23099;42.636;23.198;2023-03-25T03:18:31;91633.44;;;6.44;85.83
37206;BME280;23099;42.636;23.198;2023-03-25T03:21:09;91634.31;;;6.32;85.71
37206;BME280;23099;42.636;23.198;2023-03-25T03:23:43;91626.50;;;6.39;85.96
37206;BME280;23099;42.636;23.198;2023-03-25T03:26:23;91636.00;;;6.41;86.10
37206;BME280;23099;42.636;23.198;2023-03-25T03:28:53;91633.19;;;6.33;86.03
37206;BME280;23099;42.636;23.198;2023-03-25T03:31:26;91614.44;;;6.26;85.99
37206;BME280;23099;42.636;23.198;2023-03-25T03:33:56;91632.09;;;6.34;86.50
37206;BME280;23099;42.636;23.198;2023-03-25T03:36:29;91619.41;;;6.28;86.53
37206;BME280;23099;42.636;23.198;2023-03-25T03:39:00;91626.25;;;6.29;86.69
37206;BME280;23099;42.636;23.198;2023-03-25T03:41:33;91623.59;;;6.29;86.89
37206;BME280;23099;42.636;23.198;2023-03-25T03:44:04;91632.56;;;6.24;85.93
37206;BME280;23099;42.636;23.198;2023-03-25T03:46:36;91623.00;;;6.20;86.03
37206;BME280;23099;42.636;23.198;2023-03-25T03:49:09;91632.84;;;6.19;86.31
37206;BME280;23099;42.636;23.198;2023-03-25T03:51:42;91636.28;;;6.20;86.16
37206;BME280;23099;42.636;23.198;2023-03-25T03:54:13;91635.31;;;6.12;87.02
37206;BME280;23099;42.636;23.198;2023-03-25T03:56:46;91629.66;;;6.14;87.68
37206;BME280;23099;42.636;23.198;2023-03-25T03:59:22;91634.38;;;6.20;87.69
37206;BME280;23099;42.636;23.198;2023-03-25T04:01:57;91631.38;;;6.22;87.69
37206;BME280;23099;42.636;23.198;2023-03-25T04:04:25;91635.41;;;6.16;86.65
37206;BME280;23099;42.636;23.198;2023-03-25T04:06:56;91632.56;;;6.09;86.94
37206;BME280;23099;42.636;23.198;2023-03-25T04:09:27;91632.91;;;6.07;87.05
37206;BME280;23099;42.636;23.198;2023-03-25T04:12:03;91648.69;;;5.88;87.33
37206;BME280;23099;42.636;23.198;2023-03-25T04:14:31;91639.31;;;5.90;87.59
37206;BME280;23099;42.636;23.198;2023-03-25T04:16:58;91641.97;;;5.90;88.03
37206;BME280;23099;42.636;23.198;2023-03-25T04:19:25;91638.06;;;5.88;88.33
37206;BME280;23099;42.636;23.198;2023-03-25T04:21:52;91637.06;;;5.92;88.73
37206;BME280;23099;42.636;23.198;2023-03-25T04:24:19;91633.41;;;5.97;89.39
37206;BME280;23099;42.636;23.198;2023-03-25T04:26:46;91633.75;;;5.95;89.66
37206;BME280;23099;42.636;23.198;2023-03-25T04:29:15;91642.56;;;5.99;89.91
37206;BME280;23099;42.636;23.198;2023-03-25T04:31:42;91645.72;;;5.89;90.06
37206;BME280;23099;42.636;23.198;2023-03-25T04:34:10;91639.31;;;5.90;90.11
37206;BME280;23099;42.636;23.198;2023-03-25T04:36:38;91647.88;;;5.99;90.52
37206;BME280;23099;42.636;23.198;2023-03-25T04:39:08;91648.31;;;6.01;89.97
37206;BME280;23099;42.636;23.198;2023-03-25T04:41:36;91638.63;;;6.09;89.60
37206;BME280;23099;42.636;23.198;2023-03-25T04:44:03;91644.38;;;6.11;89.23
37206;BME280;23099;42.636;23.198;2023-03-25T04:46:34;91641.97;;;6.06;88.72
37206;BME280;23099;42.636;23.198;2023-03-25T04:49:01;91646.69;;;6.13;88.96
37206;BME280;23099;42.636;23.198;2023-03-25T04:51:30;91647.47;;;6.13;88.61
37206;BME280;23099;42.636;23.198;2023-03-25T04:53:58;91646.09;;;6.03;89.04
37206;BME280;23099;42.636;23.198;2023-03-25T04:56:26;91644.28;;;6.08;89.16
37206;BME280;23099;42.636;23.198;2023-03-25T04:58:52;91644.28;;;6.08;88.94
37206;BME280;23099;42.636;23.198;2023-03-25T05:01:22;91647.56;;;6.17;88.81
37206;BME280;23099;42.636;23.198;2023-03-25T05:03:56;91652.53;;;6.18;88.77
37206;BME280;23099;42.636;23.198;2023-03-25T05:06:29;91644.91;;;6.17;89.01
37206;BME280;23099;42.636;23.198;2023-03-25T05:08:57;91648.13;;;6.10;89.25
37206;BME280;23099;42.636;23.198;2023-03-25T05:11:24;91649.88;;;6.18;89.36
37206;BME280;23099;42.636;23.198;2023-03-25T05:13:50;91645.00;;;6.20;89.50
37206;BME280;23099;42.636;23.198;2023-03-25T05:16:17;91643.09;;;6.21;89.31
37206;BME280;23099;42.636;23.198;2023-03-25T05:18:44;91640.44;;;6.05;90.13
37206;BME280;23099;42.636;23.198;2023-03-25T05:21:12;91647.03;;;6.11;90.29
37206;BME280;23099;42.636;23.198;2023-03-25T05:23:38;91644.91;;;6.17;90.59
37206;BME280;23099;42.636;23.198;2023-03-25T05:26:06;91647.81;;;6.27;89.79
37206;BME280;23099;42.636;23.198;2023-03-25T05:28:33;91642.16;;;6.29;89.58
37206;BME280;23099;42.636;23.198;2023-03-25T05:31:00;91636.84;;;6.13;89.97
37206;BME280;23099;42.636;23.198;2023-03-25T05:33:33;91630.00;;;6.28;90.06
37206;BME280;23099;42.636;23.198;2023-03-25T05:36:01;91639.63;;;6.32;nan
37206;BME280;23099;42.636;23.198;2023-03-25T05:38:29;91636.97;;;6.32;90.40
37206;BME280;23099;42.636;23.198;2023-03-25T05:40:57;91640.38;;;6.49;90.61
37206;BME280;23099;42.636;23.198;2023-03-25T05:43:25;91644.19;;;6.67;89.74
37206;BME280;23099;42.636;23.198;2023-03-25T05:45:52;91651.66;;;6.77;89.32
37206;BME280;23099;42.636;23.198;2023-03-25T05:48:18;91642.38;;;6.87;88.93
37206;BME280;23099;42.636;23.198;2023-03-25T05:50:45;91649.91;;;7.00;89.02
37206;BME280;23099;42.636;23.198;2023-03-25T05:53:13;91647.56;;;7.15;89.25
37206;BME280;23099;42.636;23.198;2023-03-25T05:55:42;91648.91;;;7.24;89.32
37206;BME280;23099;42.636;23.198;2023-03-25T05:58:08;91639.97;;;7.32;89.46
37206;BME280;23099;42.636;23.198;2023-03-25T06:00:35;91653.03;;;7.41;89.04
37206;BME280;23099;42.636;23.198;2023-03-25T06:03:05;91650.25;;;7.53;88.31
37206;BME280;23099;42.636;23.198;2023-03-25T06:05:32;91652.78;;;7.65;87.51
37206;BME280;23099;42.636;23.198;2023-03-25T06:07:58;91651.94;;;7.80;86.38
37206;BME280;23099;42.636;23.198;2023-03-25T06:10:26;91645.56;;;8.04;85.29
37206;BME280;23099;42.636;23.198;2023-03-25T06:12:54;91648.56;;;8.26;84.62
37206;BME280;23099;42.636;23.198;2023-03-25T06:15:20;91646.66;;;8.45;83.43
37206;BME280;23099;42.636;23.198;2023-03-25T06:17:53;91643.88;;;8.61;83.74
37206;BME280;23099;42.636;23.198;2023-03-25T06:20:20;91641.44;;;8.75;83.27
37206;BME280;23099;42.636;23.198;2023-03-25T06:22:47;91642.03;;;8.88;81.61
37206;BME280;23099;42.636;23.198;2023-03-25T06:25:15;91647.91;;;9.01;82.03
37206;BME280;23099;42.636;23.198;2023-03-25T06:27:45;91644.69;;;9.14;81.15
37206;BME280;23099;42.636;23.198;2023-03-25T06:30:15;91644.81;;;9.21;80.02
37206;BME280;23099;42.636;23.198;2023-03-25T06:32:42;91646.97;;;9.42;80.41
37206;BME280;23099;42.636;23.198;2023-03-25T06:35:10;91647.94;;;9.57;79.29
37206;BME280;23099;42.636;23.198;2023-03-25T06:37:37;91648.16;;;9.75;78.02
37206;BME280;23099;42.636;23.198;2023-03-25T06:40:05;91644.47;;;9.86;78.13
37206;BME280;23099;42.636;23.198;2023-03-25T06:42:32;91643.50;;;10.02;78.21
37206;BME280;23099;42.636;23.198;2023-03-25T06:44:58;91647.06;;;10.13;77.37
37206;BME280;23099;42.636;23.198;2023-03-25T06:47:28;91647.56;;;10.22;76.08
37206;BME280;23099;42.636;23.198;2023-03-25T06:49:55;91656.81;;;10.32;75.85
37206;BME280;23099;42.636;23.198;2023-03-25T06:52:22;91656.19;;;10.45;75.48
37206;BME280;23099;42.636;23.198;2023-03-25T06:54:48;91651.31;;;10.54;75.64
37206;BME280;23099;42.636;23.198;2023-03-25T06:57:15;91653.34;;;10.68;76.46
37206;BME280;23099;42.636;23.198;2023-03-25T06:59:42;91650.78;;;10.82;74.91
37206;BME280;23099;42.636;23.198;2023-03-25T07:02:09;91642.81;;;10.86;73.68
37206;BME280;23099;42.636;23.198;2023-03-25T07:04:38;91659.78;;;11.08;72.44
37206;BME280;23099;42.636;23.198;2023-03-25T07:07:06;91649.56;;;11.20;71.56
37206;BME280;23099;42.636;23.198;2023-03-25T07:09:33;91647.38;;;11.37;72.26
37206;BME280;23099;42.636;23.198;2023-03-25T07:12:01;91650.53;;;11.53;73.89
37206;BME280;23099;42.636;23.198;2023-03-25T07:14:27;91648.31;;;11.73;71.06
37206;BME280;23099;42.636;23.198;2023-03-25T07:16:54;91651.13;;;11.90;70.32
37206;BME280;23099;42.636;23.198;2023-03-25T07:19:21;91638.94;;;12.14;71.55
37206;BME280;23099;42.636;23.198;2023-03-25T07:21:49;91647.84;;;12.36;70.68
37206;BME280;23099;42.636;23.198;2023-03-25T07:24:15;91638.28;;;12.60;69.39
37206;BME280;23099;42.636;23.198;2023-03-25T07:26:42;91643.69;;;12.85;69.24
37206;BME280;23099;42.636;23.198;2023-03-25T07:29:09;91635.63;;;13.13;65.81
37206;BME280;23099;42.636;23.198;2023-03-25T07:31:35;91640.63;;;13.39;65.62
37206;BME280;23099;42.636;23.198;2023-03-25T07:34:03;91638.66;;;13.68;64.63
37206;BME280;23099;42.636;23.198;2023-03-25T07:36:32;91645.50;;;13.94;62.75
37206;BME280;23099;42.636;23.198;2023-03-25T07:39:00;91651.91;;;14.22;59.85
37206;BME280;23099;42.636;23.198;2023-03-25T07:41:26;91639.53;;;14.45;56.45
37206;BME280;23099;42.636;23.198;2023-03-25T07:43:53;91640.22;;;14.60;55.95
37206;BME280;23099;42.636;23.198;2023-03-25T07:46:20;91643.66;;;14.64;53.69
37206;BME280;23099;42.636;23.198;2023-03-25T07:48:46;91637.38;;;14.85;52.95
37206;BME280;23099;42.636;23.198;2023-03-25T07:51:13;91634.16;;;15.01;49.32
37206;BME280;23099;42.636;23.198;2023-03-25T07:53:40;91635.97;;;15.18;48.26
37206;BME280;23099;42.636;23.198;2023-03-25T07:56:10;91627.75;;;15.36;47.95
37206;BME280;23099;42.636;23.198;2023-03-25T07:58:37;91632.19;;;15.53;45.04
37206;BME280;23099;42.636;23.198;2023-03-25T08:01:04;91617.19;;;15.52;47.36
37206;BME280;23099;42.636;23.198;2023-03-25T08:03:31;91619.34;;;15.71;46.90
37206;BME280;23099;42.636;23.198;2023-03-25T08:05:59;91619.13;;;15.93;47.20
37206;BME280;23099;42.636;23.198;2023-03-25T08:08:27;91613.78;;;16.19;45.34
37206;BME280;23099;42.636;23.198;2023-03-25T08:10:55;91606.25;;;16.38;43.77
37206;BME280;23099;42.636;23.198;2023-03-25T08:13:24;91603.91;;;16.40;42.78
37206;BME280;23099;42.636;23.198;2023-03-25T08:15:50;91603.00;;;16.50;43.00
37206;BME280;23099;42.636;23.198;2023-03-25T08:18:17;91601.81;;;16.51;42.30
37206;BME280;23099;42.636;23.198;2023-03-25T08:20:44;91604.88;;;16.53;42.13
37206;BME280;23099;42.636;23.198;2023-03-25T08:23:10;91609.34;;;16.67;42.09
37206;BME280;23099;42.636;23.198;2023-03-25T08:25:44;91607.97;;;16.82;40.05
37206;BME280;23099;42.636;23.198;2023-03-25T08:28:13;91606.88;;;17.03;41.27
37206;BME280;23099;42.636;23.198;2023-03-25T08:30:43;91598.28;;;17.11;38.89
37206;BME280;23099;42.636;23.198;2023-03-25T08:33:10;91589.88;;;17.06;38.89
37206;BME280;23099;42.636;23.198;2023-03-25T08:35:37;91586.03;;;17.03;39.52
37206;BME280;23099;42.636;23.198;2023-03-25T08:38:04;91585.28;;;17.03;38.12
37206;BME280;23099;42.636;23.198;2023-03-25T08:40:31;91590.75;;;17.22;38.61
37206;BME280;23099;42.636;23.198;2023-03-25T08:42:58;91587.72;;;17.44;38.56
37206;BME280;23099;42.636;23.198;2023-03-25T08:45:25;91585.16;;;17.56;38.52
37206;BME280;23099;42.636;23.198;2023-03-25T08:47:53;91584.00;;;17.34;36.68
37206;BME280;23099;42.636;23.198;2023-03-25T08:50:19;91583.47;;;17.19;37.17
37206;BME280;23099;42.636;23.198;2023-03-25T08:52:46;91585.06;;;17.17;38.38
37206;BME280;23099;42.636;23.198;2023-03-25T08:55:13;91578.25;;;17.09;38.09
37206;BME280;23099;42.636;23.198;2023-03-25T08:57:42;91581.38;;;17.30;38.53
37206;BME280;23099;42.636;23.198;2023-03-25T09:00:10;91584.06;;;17.30;37.91
37206;BME280;23099;42.636;23.198;2023-03-25T09:02:38;91572.31;;;17.41;37.40
37206;BME280;23099;42.636;23.198;2023-03-25T09:05:07;91572.84;;;17.55;37.16
37206;BME280;23099;42.636;23.198;2023-03-25T09:07:35;91568.03;;;17.66;38.43
37206;BME280;23099;42.636;23.198;2023-03-25T09:10:03;91567.13;;;17.93;37.80
37206;BME280;23099;42.636;23.198;2023-03-25T09:12:30;91563.44;;;18.23;36.05
37206;BME280;23099;42.636;23.198;2023-03-25T09:14:57;91559.66;;;18.36;36.85
37206;BME280;23099;42.636;23.198;2023-03-25T09:17:23;91561.69;;;18.32;36.28
37206;BME280;23099;42.636;23.198;2023-03-25T09:19:51;91562.75;;;18.19;36.10
37206;BME280;23099;42.636;23.198;2023-03-25T09:22:19;91556.66;;;17.95;36.39
37206;BME280;23099;42.636;23.198;2023-03-25T09:24:46;91559.09;;;17.70;35.98
37206;BME280;23099;42.636;23.198;2023-03-25T09:27:13;91557.75;;;17.78;38.13
37206;BME280;23099;42.636;23.198;2023-03-25T09:29:39;91548.75;;;17.84;37.81
37206;BME280;23099;42.636;23.198;2023-03-25T09:32:06;91557.50;;;18.12;36.72
37206;BME280;23099;42.636;23.198;2023-03-25T09:34:33;91548.78;;;18.40;35.84
37206;BME280;23099;42.636;23.198;2023-03-25T09:37:02;91550.63;;;18.79;36.21
37206;BME280;23099;42.636;23.198;2023-03-25T09:39:30;91547.09;;;19.15;34.34
37206;BME280;23099;42.636;23.198;2023-03-25T09:42:06;91548.00;;;19.40;33.63
37206;BME280;23099;42.636;23.198;2023-03-25T09:44:42;91546.56;;;19.36;33.88
37206;BME280;23099;42.636;23.198;2023-03-25T09:47:13;91540.13;;;19.46;35.19
37206;BME280;23099;42.636;23.198;2023-03-25T09:49:43;91549.28;;;19.52;36.19
37206;BME280;23099;42.636;23.198;2023-03-25T09:52:14;91542.50;;;19.44;38.62
37206;BME280;23099;42.636;23.198;2023-03-25T09:54:47;91543.09;;;19.19;39.75
37206;BME280;23099;42.636;23.198;2023-03-25T09:57:17;91535.78;;;19.03;41.55
37206;BME280;23099;42.636;23.198;2023-03-25T09:59:48;91532.19;;;19.23;41.17
37206;BME280;23099;42.636;23.198;2023-03-25T10:02:25;91530.56;;;19.58;41.61
37206;BME280;23099;42.636;23.198;2023-03-25T10:05:12;91524.97;;;19.77;41.92
37206;BME280;23099;42.636;23.198;2023-03-25T10:07:52;91518.88;;;20.02;40.74
37206;BME280;23099;42.636;23.198;2023-03-25T10:10:28;91525.53;;;20.14;39.23
37206;BME280;23099;42.636;23.198;2023-03-25T10:13:06;91511.97;;;20.14;38.94
37206;BME280;23099;42.636;23.198;2023-03-25T10:15:39;91505.19;;;20.06;36.25
37206;BME280;23099;42.636;23.198;2023-03-25T10:21:02;91501.16;;;20.39;36.43
37206;BME280;23099;42.636;23.198;2023-03-25T10:23:35;91496.59;;;20.49;38.01
37206;BME280;23099;42.636;23.198;2023-03-25T10:26:09;91491.50;;;20.64;37.23
37206;BME280;23099;42.636;23.198;2023-03-25T10:28:40;91499.22;;;20.91;36.13
37206;BME280;23099;42.636;23.198;2023-03-25T10:31:13;91488.88;;;20.98;32.00
37206;BME280;23099;42.636;23.198;2023-03-25T10:33:44;91484.22;;;21.46;32.95
37206;BME280;23099;42.636;23.198;2023-03-25T10:36:17;91490.91;;;22.10;33.69
37206;BME280;23099;42.636;23.198;2023-03-25T10:38:47;91485.97;;;22.18;30.35
37206;BME280;23099;42.636;23.198;2023-03-25T10:41:23;91480.41;;;22.00;29.87
37206;BME280;23099;42.636;23.198;2023-03-25T10:43:51;91487.38;;;22.01;29.81
37206;BME280;23099;42.636;23.198;2023-03-25T10:46:27;91486.53;;;21.91;30.86
37206;BME280;23099;42.636;23.198;2023-03-25T10:48:55;91478.34;;;21.69;30.49
37206;BME280;23099;42.636;23.198;2023-03-25T10:51:25;91481.66;;;21.30;31.35
37206;BME280;23099;42.636;23.198;2023-03-25T10:53:53;91471.06;;;20.85;31.37
37206;BME280;23099;42.636;23.198;2023-03-25T10:56:24;91463.91;;;20.78;31.17
37206;BME280;23099;42.636;23.198;2023-03-25T10:58:53;91459.38;;;20.62;31.98
37206;BME280;23099;42.636;23.198;2023-03-25T11:01:25;91454.41;;;20.95;33.09
37206;BME280;23099;42.636;23.198;2023-03-25T11:03:55;91458.00;;;21.05;32.84
37206;BME280;23099;42.636;23.198;2023-03-25T11:06:25;91457.97;;;21.17;31.88
37206;BME280;23099;42.636;23.198;2023-03-25T11:09:09;91444.81;;;21.29;31.48
37206;BME280;23099;42.636;23.198;2023-03-25T11:11:38;91446.03;;;21.49;31.50
37206;BME280;23099;42.636;23.198;2023-03-25T11:14:05;91444.00;;;21.41;30.53
37206;BME280;23099;42.636;23.198;2023-03-25T11:16:33;91441.22;;;21.53;31.84
37206;BME280;23099;42.636;23.198;2023-03-25T11:19:02;91454.56;;;21.61;31.44
37206;BME280;23099;42.636;23.198;2023-03-25T11:21:32;91448.44;;;21.69;29.51
37206;BME280;23099;42.636;23.198;2023-03-25T11:23:59;91446.78;;;21.72;30.47
37206;BME280;23099;42.636;23.198;2023-03-25T11:26:27;91444.38;;;21.52;29.46
37206;BME280;23099;42.636;23.198;2023-03-25T11:29:04;91439.25;;;21.54;30.06
37206;BME280;23099;42.636;23.198;2023-03-25T11:31:33;91434.50;;;21.11;30.97
37206;BME280;23099;42.636;23.198;2023-03-25T11:34:06;91429.88;;;20.86;30.96
37206;BME280;23099;42.636;23.198;2023-03-25T11:36:47;91426.53;;;20.82;30.95
37206;BME280;23099;42.636;23.198;2023-03-25T11:39:16;91427.50;;;20.88;31.36
37206;BME280;23099;42.636;23.198;2023-03-25T11:41:44;91427.81;;;20.90;31.70
37206;BME280;23099;42.636;23.198;2023-03-25T11:44:20;91426.00;;;20.74;30.95
37206;BME280;23099;42.636;23.198;2023-03-25T11:46:50;91428.88;;;20.45;31.59
37206;BME280;23099;42.636;23.198;2023-03-25T11:49:19;91423.53;;;20.42;32.45
37206;BME280;23099;42.636;23.198;2023-03-25T11:51:47;91421.34;;;20.50;31.16
37206;BME280;23099;42.636;23.198;2023-03-25T11:54:15;91412.75;;;20.64;30.19
37206;BME280;23099;42.636;23.198;2023-03-25T11:56:47;91412.00;;;20.63;29.41
37206;BME280;23099;42.636;23.198;2023-03-25T11:59:22;91405.06;;;20.50;30.38
37206;BME280;23099;42.636;23.198;2023-03-25T12:01:51;91419.31;;;20.41;31.94
37206;BME280;23099;42.636;23.198;2023-03-25T12:04:25;91418.97;;;20.39;33.00
37206;BME280;23099;42.636;23.198;2023-03-25T12:06:57;91415.28;;;20.33;32.12
37206;BME280;23099;42.636;23.198;2023-03-25T12:09:25;91400.63;;;20.30;32.66
37206;BME280;23099;42.636;23.198;2023-03-25T12:12:10;91408.53;;;20.12;32.65
37206;BME280;23099;42.636;23.198;2023-03-25T12:14:50;91400.81;;;19.98;34.10
37206;BME280;23099;42.636;23.198;2023-03-25T12:17:26;91403.00;;;20.03;33.69
37206;BME280;23099;42.636;23.198;2023-03-25T12:20:01;91398.97;;;20.07;33.59
37206;BME280;23099;42.636;23.198;2023-03-25T12:22:43;91397.59;;;20.16;32.73
37206;BME280;23099;42.636;23.198;2023-03-25T12:25:23;91397.13;;;20.30;32.73
37206;BME280;23099;42.636;23.198;2023-03-25T12:28:01;91402.75;;;20.35;33.33
37206;BME280;23099;42.636;23.198;2023-03-25T12:30:40;91419.28;;;20.28;32.75
37206;BME280;23099;42.636;23.198;2023-03-25T12:33:31;91412.78;;;20.13;33.51
37206;BME280;23099;42.636;23.198;2023-03-25T12:36:19;91399.41;;;20.06;33.46
37206;BME280;23099;42.636;23.198;2023-03-25T12:39:00;91398.09;;;20.10;34.39
37206;BME280;23099;42.636;23.198;2023-03-25T12:41:33;91392.16;;;20.03;34.06
37206;BME280;23099;42.636;23.198;2023-03-25T12:44:06;91373.03;;;19.94;35.33
37206;BME280;23099;42.636;23.198;2023-03-25T12:46:53;91390.28;;;19.87;34.07
37206;BME280;23099;42.636;23.198;2023-03-25T12:49:40;91386.06;;;19.73;34.22
37206;BME280;23099;42.636;23.198;2023-03-25T12:52:15;91382.41;;;19.51;35.39
37206;BME280;23099;42.636;23.198;2023-03-25T12:54:57;91386.22;;;19.25;35.62
37206;BME280;23099;42.636;23.198;2023-03-25T12:57:37;91383.00;;;19.30;35.29
37206;BME280;23099;42.636;23.198;2023-03-25T13:00:21;91390.94;;;19.08;36.17
37206;BME280;23099;42.636;23.198;2023-03-25T13:03:09;91373.88;;;18.95;36.48
37206;BME280;23099;42.636;23.198;2023-03-25T13:05:47;91384.63;;;18.98;37.58
37206;BME280;23099;42.636;23.198;2023-03-25T13:08:18;91388.06;;;18.70;37.35
37206;BME280;23099;42.636;23.198;2023-03-25T13:10:49;91395.66;;;18.43;38.37
37206;BME280;23099;42.636;23.198;2023-03-25T13:13:22;91393.22;;;18.32;39.25
37206;BME280;23099;42.636;23.198;2023-03-25T13:15:56;91400.03;;;18.20;40.03
37206;BME280;23099;42.636;23.198;2023-03-25T13:18:31;91406.97;;;18.21;41.89